Time;durP1;ratioP1;P1;durP2;ratioP2;P2;SDS_P1;SDS_P2;PMS_P1;PMS_P2;Temp;Humidity;BMP_temperature;BMP_pressure;BME280_temperature;BME280_humidity;BME280_pressure;Samples;Min_cycle;Max_cycle;Signal;HPM_P1;HPM_P2
2022/04/21 00:00:05;;;;;;;7.70;6.07;;;;;;;;;;5002358;28;20928;-81
2022/04/21 00:02:31;;;;;;;7.85;6.43;;;;;;;;;;5004538;28;20438;-82
2022/04/21 00:04:59;;;;;;;9.20;6.30;;;;;;;;;;5005556;28;20451;-81
2022/04/21 00:07:25;;;;;;;8.13;6.00;;;;;;;;;;5004001;28;20448;-81
2022/04/21 00:09:52;;;;;;;7.97;6.15;;;;;;;;;;5003837;28;20441;-81
2022/04/21 00:12:18;;;;;;;6.82;5.95;;;;;;;;;;5000828;28;20429;-81
2022/04/21 00:14:47;;;;;;;9.63;6.10;;;;;;;;;;5003636;28;20431;-79
2022/04/21 00:17:14;;;;;;;7.47;6.47;;;;;;;;;;5002795;28;20432;-82
2022/04/21 00:19:40;;;;;;;7.75;5.82;;;;;;;;;;5001540;28;20482;-82
2022/04/21 00:24:51;;;;;;;7.22;6.00;;;;;;;;;;5000071;28;20433;-81
2022/04/21 00:27:18;;;;;;;9.10;6.10;;;;;;;;;;5000687;28;20965;-82
2022/04/21 00:29:44;;;;;;;7.32;5.90;;;;;;;;;;5000558;28;20434;-79
2022/04/21 00:32:11;;;;;;;7.13;6.30;;;;;;;;;;5004348;28;20514;-82
2022/04/21 00:34:37;;;;;;;7.53;6.35;;;;;;;;;;5003531;28;20425;-81
2022/04/21 00:37:04;;;;;;;9.75;6.72;;;;;;;;;;5003663;28;20497;-82
2022/04/21 00:39:32;;;;;;;9.15;6.40;;;;;;;;;;5003517;28;20919;-81
2022/04/21 00:41:58;;;;;;;9.70;6.55;;;;;;;;;;5006092;28;20440;-83
2022/04/21 00:44:25;;;;;;;9.43;6.60;;;;;;;;;;5003468;28;20859;-81
2022/04/21 00:46:52;;;;;;;7.85;6.32;;;;;;;;;;5004249;28;21025;-81
2022/04/21 00:49:19;;;;;;;10.10;6.82;;;;;;;;;;5002669;28;20872;-82
2022/04/21 00:51:45;;;;;;;10.00;6.90;;;;;;;;;;5003503;28;20426;-80
2022/04/21 00:54:11;;;;;;;8.52;6.60;;;;;;;;;;5003313;28;20451;-81
2022/04/21 00:56:40;;;;;;;11.30;7.50;;;;;;;;;;5003456;28;20465;-81
2022/04/21 00:59:06;;;;;;;10.68;7.10;;;;;;;;;;5002661;28;20425;-81
2022/04/21 01:04:18;;;;;;;8.43;7.00;;;;;;;;;;5004051;28;20428;-82
2022/04/21 01:06:44;;;;;;;7.07;6.20;;;;;;;;;;5004241;28;20461;-80
2022/04/21 01:09:10;;;;;;;8.55;6.05;;;;;;;;;;5004559;28;20425;-81
2022/04/21 01:11:37;;;;;;;8.57;6.72;;;;;;;;;;5003611;28;20445;-81
2022/04/21 01:14:04;;;;;;;10.15;6.95;;;;;;;;;;5003250;28;20425;-82
2022/04/21 01:16:31;;;;;;;7.82;6.28;;;;;;;;;;5006305;28;20440;-82
2022/04/21 01:18:57;;;;;;;11.85;6.60;;;;;;;;;;5002862;28;20448;-82
2022/04/21 01:21:24;;;;;;;7.35;6.40;;;;;;;;;;4999685;28;20440;-81
2022/04/21 01:23:51;;;;;;;8.15;6.80;;;;;;;;;;5004044;28;20418;-82
2022/04/21 01:26:17;;;;;;;8.70;7.32;;;;;;;;;;5002049;28;20520;-80
2022/04/21 01:28:44;;;;;;;10.00;7.13;;;;;;;;;;5002030;28;20428;-80
2022/04/21 01:31:10;;;;;;;10.23;6.70;;;;;;;;;;5001639;28;20446;-81
2022/04/21 01:33:37;;;;;;;10.55;6.47;;;;;;;;;;5000071;28;20417;-82
2022/04/21 01:36:04;;;;;;;8.50;6.70;;;;;;;;;;4999345;28;21143;-81
2022/04/21 01:41:15;;;;;;;9.98;7.30;;;;;;;;;;4998650;28;20433;-82
2022/04/21 01:43:43;;;;;;;9.85;7.40;;;;;;;;;;4999673;28;20481;-81
2022/04/21 01:46:10;;;;;;;9.30;7.00;;;;;;;;;;5000208;28;20493;-82
2022/04/21 01:48:36;;;;;;;9.50;6.70;;;;;;;;;;5001360;28;20443;-81
2022/04/21 01:51:02;;;;;;;9.90;7.13;;;;;;;;;;5000386;28;20492;-82
2022/04/21 01:53:29;;;;;;;9.73;7.00;;;;;;;;;;5000885;28;20428;-82
2022/04/21 01:55:56;;;;;;;8.32;6.70;;;;;;;;;;5002120;28;20488;-81
2022/04/21 01:58:23;;;;;;;8.20;6.85;;;;;;;;;;4999665;28;20971;-81
2022/04/21 02:00:49;;;;;;;9.05;7.28;;;;;;;;;;5002032;28;20429;-81
2022/04/21 02:03:15;;;;;;;8.98;7.05;;;;;;;;;;5002502;28;20441;-81
2022/04/21 02:05:41;;;;;;;8.47;7.30;;;;;;;;;;5000182;28;21075;-81
2022/04/21 02:08:08;;;;;;;9.07;7.40;;;;;;;;;;5000328;28;20438;-81
2022/04/21 02:10:34;;;;;;;8.80;7.32;;;;;;;;;;5000322;28;20523;-81
2022/04/21 02:13:02;;;;;;;8.32;6.97;;;;;;;;;;4997879;28;20438;-81
2022/04/21 02:15:28;;;;;;;9.40;7.38;;;;;;;;;;4998204;28;20442;-81
2022/04/21 02:17:54;;;;;;;10.45;7.20;;;;;;;;;;5000583;28;20430;-79
2022/04/21 02:20:21;;;;;;;12.20;7.63;;;;;;;;;;5000672;28;20468;-81
2022/04/21 02:22:47;;;;;;;11.07;7.30;;;;;;;;;;5001793;28;20436;-80
2022/04/21 02:25:14;;;;;;;8.70;6.85;;;;;;;;;;5000271;28;21077;-81
2022/04/21 02:27:41;;;;;;;9.75;7.10;;;;;;;;;;5000558;28;20444;-81
2022/04/21 02:30:10;;;;;;;8.82;6.70;;;;;;;;;;4998981;28;20454;-82
2022/04/21 02:32:36;;;;;;;8.65;7.70;;;;;;;;;;5001042;28;20486;-82
2022/04/21 02:35:03;;;;;;;9.00;7.60;;;;;;;;;;5002342;28;20437;-82
2022/04/21 02:37:35;;;;;;;8.88;7.20;;;;;;;;;;4999479;28;21169;-82
2022/04/21 02:40:01;;;;;;;10.68;7.60;;;;;;;;;;4999256;28;20425;-81
2022/04/21 02:42:27;;;;;;;8.60;7.07;;;;;;;;;;4999416;28;20434;-82
2022/04/21 02:44:53;;;;;;;8.70;6.60;;;;;;;;;;4999477;28;20486;-81
2022/04/21 02:47:21;;;;;;;7.55;6.82;;;;;;;;;;5001942;28;20444;-81
2022/04/21 02:49:47;;;;;;;8.77;7.40;;;;;;;;;;4998271;28;20477;-81
2022/04/21 02:52:14;;;;;;;10.23;7.70;;;;;;;;;;4999401;28;20800;-82
2022/04/21 02:57:25;;;;;;;9.25;7.10;;;;;;;;;;4999850;28;20993;-81
2022/04/21 02:59:52;;;;;;;8.18;6.80;;;;;;;;;;4999251;28;20462;-81
2022/04/21 03:02:19;;;;;;;11.32;7.70;;;;;;;;;;5000800;28;20506;-82
2022/04/21 03:04:47;;;;;;;8.80;7.50;;;;;;;;;;5002634;28;20859;-81
2022/04/21 03:07:13;;;;;;;11.43;7.78;;;;;;;;;;5001111;28;20930;-82
2022/04/21 03:09:40;;;;;;;12.00;7.70;;;;;;;;;;5001524;28;20430;-82
2022/04/21 03:12:06;;;;;;;9.85;7.10;;;;;;;;;;5000188;28;20852;-82
2022/04/21 03:14:34;;;;;;;9.32;7.25;;;;;;;;;;5001051;28;20842;-81
2022/04/21 03:17:01;;;;;;;8.80;7.53;;;;;;;;;;5000286;28;20440;-82
2022/04/21 03:19:27;;;;;;;9.60;7.40;;;;;;;;;;5001007;28;20434;-82
2022/04/21 03:24:38;;;;;;;9.63;7.40;;;;;;;;;;5000455;28;20415;-81
2022/04/21 03:27:05;;;;;;;10.90;7.40;;;;;;;;;;4998747;28;20820;-81
2022/04/21 03:29:31;;;;;;;7.82;7.00;;;;;;;;;;4999925;28;20433;-81
2022/04/21 03:31:57;;;;;;;8.80;7.57;;;;;;;;;;4998689;28;20469;-82
2022/04/21 03:34:24;;;;;;;10.27;8.02;;;;;;;;;;5002014;28;20429;-81
2022/04/21 03:36:50;;;;;;;9.55;7.70;;;;;;;;;;4999590;28;20438;-82
2022/04/21 03:39:20;;;;;;;8.00;7.20;;;;;;;;;;5000447;28;20949;-82
2022/04/21 03:41:46;;;;;;;11.68;7.80;;;;;;;;;;5002597;28;20441;-81
2022/04/21 03:44:12;;;;;;;9.93;7.32;;;;;;;;;;5000905;28;20463;-82
2022/04/21 03:46:39;;;;;;;10.85;7.68;;;;;;;;;;5002829;28;20463;-82
2022/04/21 03:49:06;;;;;;;10.15;7.68;;;;;;;;;;5000975;28;20432;-82
2022/04/21 03:51:32;;;;;;;9.20;7.57;;;;;;;;;;5000957;28;20440;-82
2022/04/21 03:53:58;;;;;;;14.65;7.43;;;;;;;;;;5000748;28;20434;-81
2022/04/21 03:56:27;;;;;;;8.45;7.30;;;;;;;;;;5004966;28;20490;-82
2022/04/21 03:58:53;;;;;;;11.30;7.50;;;;;;;;;;5001914;28;20443;-81
2022/04/21 04:01:20;;;;;;;8.75;7.57;;;;;;;;;;5001364;28;20440;-81
2022/04/21 04:03:46;;;;;;;10.13;7.50;;;;;;;;;;5003239;28;20418;-82
2022/04/21 04:11:37;;;;;;;11.40;7.78;;;;;;;;;;5001031;28;20570;-82
2022/04/21 04:14:05;;;;;;;10.27;7.47;;;;;;;;;;5000979;28;20477;-81
2022/04/21 04:16:33;;;;;;;10.75;7.78;;;;;;;;;;5001600;28;20521;-82
2022/04/21 04:18:59;;;;;;;8.82;7.70;;;;;;;;;;5000627;28;21018;-82
2022/04/21 04:21:25;;;;;;;10.88;7.63;;;;;;;;;;5002070;28;20436;-82
2022/04/21 04:23:51;;;;;;;9.55;7.93;;;;;;;;;;4999126;28;20881;-81
2022/04/21 04:26:18;;;;;;;9.90;7.90;;;;;;;;;;5001599;28;20462;-80
2022/04/21 04:28:45;;;;;;;9.00;7.43;;;;;;;;;;4998548;28;21192;-79
2022/04/21 04:31:11;;;;;;;10.55;8.48;;;;;;;;;;4997913;28;21169;-81
2022/04/21 04:33:38;;;;;;;9.70;7.60;;;;;;;;;;5001498;28;20416;-81
2022/04/21 04:36:04;;;;;;;10.30;7.88;;;;;;;;;;4999335;28;20599;-80
2022/04/21 04:38:30;;;;;;;10.45;8.00;;;;;;;;;;5000612;28;20893;-82
2022/04/21 04:42:15;;;;;;;9.98;7.80;;;;;;;;;;5002911;28;20415;-81
2022/04/21 04:43:42;;;;;;;11.60;8.50;;;;;;;;;;5002464;28;20414;-82
2022/04/21 04:48:55;;;;;;;10.80;8.05;;;;;;;;;;4999728;28;20439;-81
2022/04/21 04:51:21;;;;;;;10.43;8.18;;;;;;;;;;5002655;28;20444;-81
2022/04/21 04:53:47;;;;;;;9.15;7.90;;;;;;;;;;5000063;28;20422;-81
2022/04/21 04:56:14;;;;;;;12.73;8.57;;;;;;;;;;5000381;28;20498;-81
2022/04/21 04:58:40;;;;;;;11.93;8.57;;;;;;;;;;5001348;28;20425;-82
2022/04/21 05:01:06;;;;;;;12.20;9.23;;;;;;;;;;5000622;28;20434;-81
2022/04/21 05:03:34;;;;;;;10.37;8.10;;;;;;;;;;4998584;28;21122;-81
2022/04/21 05:06:00;;;;;;;10.63;8.48;;;;;;;;;;5002759;28;20447;-81
2022/04/21 05:08:27;;;;;;;9.15;8.25;;;;;;;;;;4998465;28;20436;-82
2022/04/21 05:10:53;;;;;;;10.88;8.00;;;;;;;;;;5000909;28;20505;-81
2022/04/21 05:13:19;;;;;;;9.25;8.10;;;;;;;;;;4998832;28;20428;-81
2022/04/21 05:15:45;;;;;;;10.37;8.73;;;;;;;;;;5001385;28;20571;-80
2022/04/21 05:18:12;;;;;;;10.90;8.00;;;;;;;;;;4999764;28;20441;-82
2022/04/21 05:20:40;;;;;;;12.43;8.90;;;;;;;;;;5001393;28;20424;-81
2022/04/21 05:23:07;;;;;;;10.30;8.25;;;;;;;;;;5001120;28;21024;-79
2022/04/21 05:25:36;;;;;;;9.32;7.47;;;;;;;;;;5002961;28;20480;-81
2022/04/21 05:28:03;;;;;;;8.35;7.55;;;;;;;;;;5001156;28;20953;-80
2022/04/21 05:33:15;;;;;;;9.85;7.97;;;;;;;;;;5000523;28;20804;-80
2022/04/21 05:35:43;;;;;;;10.95;7.85;;;;;;;;;;5003148;28;20437;-81
2022/04/21 05:38:09;;;;;;;10.20;8.13;;;;;;;;;;5002031;28;20432;-80
2022/04/21 05:40:36;;;;;;;10.50;7.80;;;;;;;;;;5004294;28;20424;-82
2022/04/21 05:43:04;;;;;;;9.45;7.72;;;;;;;;;;5000015;28;20430;-81
2022/04/21 05:45:31;;;;;;;11.38;8.00;;;;;;;;;;4997798;28;20430;-81
2022/04/21 05:47:58;;;;;;;8.20;7.38;;;;;;;;;;5002746;28;20495;-82
2022/04/21 05:50:26;;;;;;;10.30;8.07;;;;;;;;;;4997907;28;20475;-82
2022/04/21 05:52:58;;;;;;;14.02;7.63;;;;;;;;;;5008416;28;20438;-81
2022/04/21 05:55:25;;;;;;;10.27;7.63;;;;;;;;;;5003708;28;20444;-82
2022/04/21 05:57:51;;;;;;;13.18;7.90;;;;;;;;;;5001893;28;20434;-81
2022/04/21 06:00:18;;;;;;;8.23;7.43;;;;;;;;;;5002187;28;20424;-81
2022/04/21 06:02:44;;;;;;;11.15;7.72;;;;;;;;;;5003534;28;20429;-81
2022/04/21 06:05:10;;;;;;;12.38;7.90;;;;;;;;;;5001427;28;20426;-82
2022/04/21 06:07:36;;;;;;;9.93;7.60;;;;;;;;;;5000680;28;20440;-82
2022/04/21 06:10:04;;;;;;;9.95;7.13;;;;;;;;;;4998119;28;20939;-82
2022/04/21 06:12:31;;;;;;;8.60;7.00;;;;;;;;;;5001245;28;20428;-82
2022/04/21 06:14:57;;;;;;;8.40;6.93;;;;;;;;;;5000943;28;20441;-81
2022/04/21 06:17:35;;;;;;;8.88;6.97;;;;;;;;;;5002837;28;20422;-78
2022/04/21 06:20:01;;;;;;;10.73;6.67;;;;;;;;;;5000407;28;20426;-82
2022/04/21 06:22:27;;;;;;;11.35;6.90;;;;;;;;;;5000995;28;20429;-82
2022/04/21 06:24:54;;;;;;;8.80;6.90;;;;;;;;;;5001969;28;20527;-82
2022/04/21 06:27:21;;;;;;;7.28;5.70;;;;;;;;;;5002015;28;20490;-82
2022/04/21 06:29:47;;;;;;;8.20;5.50;;;;;;;;;;5001770;28;20493;-81
2022/04/21 06:32:14;;;;;;;6.07;5.18;;;;;;;;;;5003335;28;20906;-82
2022/04/21 06:34:40;;;;;;;7.23;5.70;;;;;;;;;;5002893;28;20480;-82
2022/04/21 06:37:06;;;;;;;6.05;5.22;;;;;;;;;;5001344;28;20522;-82
2022/04/21 06:39:33;;;;;;;7.40;4.80;;;;;;;;;;4999717;28;20476;-81
2022/04/21 06:41:59;;;;;;;7.25;5.20;;;;;;;;;;5001867;28;20479;-81
2022/04/21 06:49:55;;;;;;;8.02;4.60;;;;;;;;;;5000147;28;20410;-81
2022/04/21 06:52:21;;;;;;;9.20;5.18;;;;;;;;;;5000440;28;20445;-82
2022/04/21 06:54:47;;;;;;;5.18;4.40;;;;;;;;;;5000611;28;20422;-81
2022/04/21 06:57:14;;;;;;;5.37;4.43;;;;;;;;;;5001835;28;20489;-82
2022/04/21 06:59:41;;;;;;;6.40;4.35;;;;;;;;;;5002487;28;20412;-83
2022/04/21 07:02:10;;;;;;;5.25;4.50;;;;;;;;;;5001184;28;20435;-81
2022/04/21 07:04:37;;;;;;;6.05;4.38;;;;;;;;;;5001706;28;20501;-81
2022/04/21 07:07:04;;;;;;;7.22;4.43;;;;;;;;;;5001256;28;20525;-82
2022/04/21 07:09:30;;;;;;;4.90;4.40;;;;;;;;;;5000858;28;20425;-82
2022/04/21 07:11:56;;;;;;;5.63;4.22;;;;;;;;;;4998716;28;20434;-82
2022/04/21 07:14:22;;;;;;;8.02;4.10;;;;;;;;;;4999857;28;20781;-83
2022/04/21 07:16:50;;;;;;;5.97;4.07;;;;;;;;;;5000457;28;20468;-82
2022/04/21 07:19:16;;;;;;;6.93;3.97;;;;;;;;;;5001501;28;20422;-83
2022/04/21 07:21:42;;;;;;;4.80;4.10;;;;;;;;;;5001021;28;20436;-83
2022/04/21 07:24:09;;;;;;;7.20;4.55;;;;;;;;;;4999882;28;20462;-82
2022/04/21 07:26:35;;;;;;;11.63;5.07;;;;;;;;;;5001230;28;20493;-82
2022/04/21 07:29:01;;;;;;;4.60;4.10;;;;;;;;;;4998421;28;20430;-83
2022/04/21 07:31:28;;;;;;;6.50;4.15;;;;;;;;;;5002227;28;20429;-83
2022/04/21 07:33:56;;;;;;;4.63;3.95;;;;;;;;;;5004557;28;20426;-82
2022/04/21 07:36:22;;;;;;;5.27;4.70;;;;;;;;;;5003595;28;20441;-83
2022/04/21 07:38:49;;;;;;;6.00;4.30;;;;;;;;;;5005070;28;20412;-82
2022/04/21 07:41:15;;;;;;;6.40;3.90;;;;;;;;;;5004101;28;20499;-83
2022/04/21 07:43:44;;;;;;;4.72;4.22;;;;;;;;;;5003861;28;20430;-83
2022/04/21 07:46:10;;;;;;;7.22;4.32;;;;;;;;;;5006201;28;20454;-82
2022/04/21 07:51:18;;;;;;;5.50;4.07;;;;;;;;;;5003466;28;20426;-82
2022/04/21 07:53:43;;;;;;;7.15;4.25;;;;;;;;;;5003760;28;20430;-82
2022/04/21 07:56:09;;;;;;;5.17;3.80;;;;;;;;;;5005167;28;20421;-83
2022/04/21 07:58:35;;;;;;;6.30;4.47;;;;;;;;;;5001916;28;20425;-83
2022/04/21 08:01:02;;;;;;;4.60;4.10;;;;;;;;;;5005737;28;20413;-83
2022/04/21 08:03:29;;;;;;;7.00;4.18;;;;;;;;;;5004538;28;20468;-82
2022/04/21 08:05:55;;;;;;;5.20;4.50;;;;;;;;;;5005210;28;20464;-82
2022/04/21 08:08:23;;;;;;;6.13;4.20;;;;;;;;;;5002542;28;20439;-83
2022/04/21 08:10:49;;;;;;;4.38;3.72;;;;;;;;;;5007321;28;20438;-82
2022/04/21 08:13:19;;;;;;;5.82;4.20;;;;;;;;;;5004825;28;20446;-83
2022/04/21 08:15:46;;;;;;;6.78;5.00;;;;;;;;;;5004598;28;20927;-82
2022/04/21 08:18:13;;;;;;;5.53;4.60;;;;;;;;;;5004285;28;20434;-83
2022/04/21 08:20:39;;;;;;;5.40;4.40;;;;;;;;;;5007997;28;20418;-82
2022/04/21 08:23:06;;;;;;;6.85;4.30;;;;;;;;;;5005075;28;20940;-82
2022/04/21 08:33:45;;;;;;;5.32;4.00;;;;;;;;;;5003284;28;20416;-83
2022/04/21 08:36:12;;;;;;;5.10;4.20;;;;;;;;;;5003406;28;20463;-82
2022/04/21 08:38:38;;;;;;;4.82;4.30;;;;;;;;;;5001446;28;20463;-83
2022/04/21 08:41:07;;;;;;;4.60;4.10;;;;;;;;;;5002136;28;20425;-82
2022/04/21 08:43:35;;;;;;;6.10;4.25;;;;;;;;;;5002700;28;20509;-83
2022/04/21 08:46:03;;;;;;;4.93;3.70;;;;;;;;;;5002376;28;20440;-82
2022/04/21 08:48:29;;;;;;;6.03;4.47;;;;;;;;;;5001908;28;20488;-83
2022/04/21 08:50:55;;;;;;;4.40;3.78;;;;;;;;;;5003225;28;20666;-83
2022/04/21 08:53:23;;;;;;;7.30;4.60;;;;;;;;;;5000566;28;20440;-83
2022/04/21 08:55:50;;;;;;;5.70;4.23;;;;;;;;;;5003560;28;20420;-83
2022/04/21 08:58:18;;;;;;;4.70;4.13;;;;;;;;;;5001777;28;20438;-83
2022/04/21 09:00:44;;;;;;;7.05;4.30;;;;;;;;;;5005839;28;20420;-82
2022/04/21 09:03:11;;;;;;;5.97;4.10;;;;;;;;;;5002191;28;20989;-83
2022/04/21 09:05:37;;;;;;;5.57;4.70;;;;;;;;;;5002568;28;20443;-82
2022/04/21 09:08:04;;;;;;;5.57;4.60;;;;;;;;;;5000550;28;20601;-82
2022/04/21 09:10:31;;;;;;;6.63;4.72;;;;;;;;;;5000838;28;20426;-83
2022/04/21 09:12:59;;;;;;;5.57;4.65;;;;;;;;;;5001346;28;20918;-82
2022/04/21 09:15:27;;;;;;;6.60;4.32;;;;;;;;;;5001945;28;20422;-83
2022/04/21 09:17:56;;;;;;;5.28;4.50;;;;;;;;;;5000105;28;20428;-82
2022/04/21 09:20:23;;;;;;;5.75;4.28;;;;;;;;;;4999696;28;20422;-82
2022/04/21 09:22:52;;;;;;;5.40;4.68;;;;;;;;;;4997735;28;20504;-82
2022/04/21 09:25:18;;;;;;;6.47;4.80;;;;;;;;;;4999194;28;20417;-82
2022/04/21 09:27:45;;;;;;;5.97;4.55;;;;;;;;;;4998634;28;20465;-82
2022/04/21 09:30:13;;;;;;;5.40;4.10;;;;;;;;;;4998302;28;20479;-83
2022/04/21 09:32:41;;;;;;;5.85;3.92;;;;;;;;;;5001127;28;20428;-83
2022/04/21 09:35:08;;;;;;;6.40;4.70;;;;;;;;;;4998868;28;20429;-82
2022/04/21 09:37:44;;;;;;;4.90;4.40;;;;;;;;;;4999796;28;20438;-82
2022/04/21 09:40:11;;;;;;;5.10;4.60;;;;;;;;;;4999710;28;20414;-82
2022/04/21 09:42:37;;;;;;;5.65;4.60;;;;;;;;;;4999429;28;20409;-83
2022/04/21 09:47:49;;;;;;;7.38;5.00;;;;;;;;;;5000524;28;21458;-83
2022/04/21 09:50:16;;;;;;;6.38;5.50;;;;;;;;;;4999360;28;20519;-82
2022/04/21 09:52:49;;;;;;;6.43;5.35;;;;;;;;;;4983647;28;21779;-82
2022/04/21 09:55:22;;;;;;;5.97;5.20;;;;;;;;;;4998781;28;20421;-83
2022/04/21 09:57:50;;;;;;;6.20;5.05;;;;;;;;;;4998153;28;20436;-82
2022/04/21 10:00:20;;;;;;;6.32;5.10;;;;;;;;;;4998485;28;20418;-84
2022/04/21 10:02:47;;;;;;;5.22;4.72;;;;;;;;;;4996862;28;20438;-83
2022/04/21 10:05:15;;;;;;;6.25;5.18;;;;;;;;;;4998187;28;20437;-83
2022/04/21 10:07:42;;;;;;;8.32;5.55;;;;;;;;;;4995847;28;20846;-84
2022/04/21 10:10:10;;;;;;;7.90;5.32;;;;;;;;;;4997969;28;20920;-82
2022/04/21 10:12:36;;;;;;;5.80;5.30;;;;;;;;;;4996919;28;20433;-84
2022/04/21 10:15:04;;;;;;;7.38;5.50;;;;;;;;;;4998252;28;20421;-83
2022/04/21 10:17:30;;;;;;;5.80;5.20;;;;;;;;;;5002312;28;20423;-84
2022/04/21 10:19:56;;;;;;;8.10;5.00;;;;;;;;;;5001692;28;20447;-83
2022/04/21 10:22:25;;;;;;;5.88;5.30;;;;;;;;;;5001410;28;20432;-84
2022/04/21 10:24:54;;;;;;;6.88;5.72;;;;;;;;;;5003278;28;20431;-84
2022/04/21 10:27:34;;;;;;;5.50;4.82;;;;;;;;;;5001442;28;20433;-82
2022/04/21 10:30:01;;;;;;;5.75;5.15;;;;;;;;;;5002716;28;20433;-83
2022/04/21 10:32:45;;;;;;;5.75;5.00;;;;;;;;;;5003650;28;20954;-84
2022/04/21 10:35:17;;;;;;;5.57;5.07;;;;;;;;;;5003581;28;20425;-83
2022/04/21 10:37:45;;;;;;;9.03;5.80;;;;;;;;;;5003657;28;20480;-83
2022/04/21 10:40:14;;;;;;;7.97;5.00;;;;;;;;;;5003325;28;20423;-83
2022/04/21 10:42:55;;;;;;;5.93;5.33;;;;;;;;;;5004334;28;20462;-83
2022/04/21 10:45:22;;;;;;;7.20;5.40;;;;;;;;;;5000772;28;20506;-83
2022/04/21 10:48:02;;;;;;;5.78;5.25;;;;;;;;;;5004188;28;20421;-82
2022/04/21 10:50:30;;;;;;;6.00;5.40;;;;;;;;;;5004335;28;20425;-83
2022/04/21 10:58:47;;;;;;;8.07;5.45;;;;;;;;;;5004256;28;20920;-84
2022/04/21 11:01:14;;;;;;;5.97;4.60;;;;;;;;;;5008577;28;20481;-83
2022/04/21 11:03:41;;;;;;;6.38;4.65;;;;;;;;;;5011753;28;20420;-83
2022/04/21 11:06:08;;;;;;;7.88;5.28;;;;;;;;;;5004544;28;21211;-83
2022/04/21 11:08:36;;;;;;;5.40;4.90;;;;;;;;;;5004110;28;20463;-83
2022/04/21 11:11:02;;;;;;;4.63;4.10;;;;;;;;;;5005564;28;20806;-83
2022/04/21 11:13:40;;;;;;;6.57;4.35;;;;;;;;;;5003651;28;20443;-82
2022/04/21 11:16:06;;;;;;;8.90;4.70;;;;;;;;;;5004678;28;20482;-81
2022/04/21 11:18:33;;;;;;;6.32;4.95;;;;;;;;;;5003955;28;20410;-83
2022/04/21 11:21:14;;;;;;;5.07;4.50;;;;;;;;;;5004872;28;20422;-83
2022/04/21 11:23:55;;;;;;;7.80;5.05;;;;;;;;;;5003452;28;20422;-83
2022/04/21 11:26:27;;;;;;;6.45;5.18;;;;;;;;;;5002063;28;20428;-83
2022/04/21 11:28:53;;;;;;;6.15;4.60;;;;;;;;;;5002558;28;20426;-83
2022/04/21 11:31:20;;;;;;;6.00;4.20;;;;;;;;;;5006310;28;20449;-83
2022/04/21 11:33:47;;;;;;;5.00;4.50;;;;;;;;;;5003994;28;20420;-83
2022/04/21 11:36:14;;;;;;;5.70;5.10;;;;;;;;;;5004875;28;20428;-83
2022/04/21 11:38:40;;;;;;;10.30;4.97;;;;;;;;;;5003702;28;20416;-83
2022/04/21 11:41:10;;;;;;;5.68;4.80;;;;;;;;;;5004829;28;20440;-83
2022/04/21 11:43:45;;;;;;;7.65;4.50;;;;;;;;;;5003734;28;20472;-83
2022/04/21 11:46:12;;;;;;;6.97;4.63;;;;;;;;;;5004871;28;20492;-83
2022/04/21 11:48:40;;;;;;;5.30;4.80;;;;;;;;;;5004555;28;20498;-83
2022/04/21 11:51:07;;;;;;;6.55;5.03;;;;;;;;;;5005163;28;20463;-83
2022/04/21 11:53:36;;;;;;;5.10;4.70;;;;;;;;;;5003219;28;20429;-84
2022/04/21 11:56:02;;;;;;;5.38;4.50;;;;;;;;;;5004446;28;20434;-83
2022/04/21 11:58:29;;;;;;;6.30;5.35;;;;;;;;;;5002555;28;20482;-84
2022/04/21 12:06:38;;;;;;;7.50;4.50;;;;;;;;;;5004246;28;20472;-84
2022/04/21 12:09:05;;;;;;;6.40;4.55;;;;;;;;;;5002226;28;20426;-84
2022/04/21 12:11:32;;;;;;;5.82;4.88;;;;;;;;;;5003584;28;20420;-83
2022/04/21 12:13:58;;;;;;;9.52;4.93;;;;;;;;;;4989717;28;20481;-84
2022/04/21 12:16:37;;;;;;;5.00;4.20;;;;;;;;;;4999931;28;20428;-84
2022/04/21 12:19:13;;;;;;;7.43;4.00;;;;;;;;;;5000176;28;20446;-84
2022/04/21 12:21:39;;;;;;;4.93;4.30;;;;;;;;;;5002905;28;20424;-84
2022/04/21 12:24:15;;;;;;;4.70;3.90;;;;;;;;;;5002963;28;20436;-84
2022/04/21 12:26:48;;;;;;;4.85;4.40;;;;;;;;;;5003526;28;20786;-84
2022/04/21 12:29:15;;;;;;;5.97;4.68;;;;;;;;;;5002698;28;20426;-84
2022/04/21 12:31:47;;;;;;;7.90;4.80;;;;;;;;;;5005653;28;20494;-84
2022/04/21 12:34:14;;;;;;;7.07;4.07;;;;;;;;;;5003640;28;20497;-84
2022/04/21 12:36:49;;;;;;;6.45;4.20;;;;;;;;;;5004717;28;20420;-84
2022/04/21 12:39:15;;;;;;;6.00;4.43;;;;;;;;;;5002571;28;20425;-84
2022/04/21 12:41:42;;;;;;;7.25;4.85;;;;;;;;;;5003336;28;20467;-84
2022/04/21 12:44:08;;;;;;;6.70;4.50;;;;;;;;;;5002645;28;20749;-84
2022/04/21 12:46:35;;;;;;;5.40;4.05;;;;;;;;;;5003111;28;20913;-84
2022/04/21 12:49:02;;;;;;;4.47;4.07;;;;;;;;;;5003665;28;20421;-84
2022/04/21 12:51:28;;;;;;;7.68;4.40;;;;;;;;;;5005213;28;20433;-83
2022/04/21 12:53:56;;;;;;;4.90;4.40;;;;;;;;;;5001989;28;20485;-84
2022/04/21 12:56:32;;;;;;;5.28;4.18;;;;;;;;;;5004792;28;20448;-84
2022/04/21 12:58:58;;;;;;;6.50;4.55;;;;;;;;;;5002267;28;20427;-84
2022/04/21 13:01:24;;;;;;;5.07;4.15;;;;;;;;;;5003887;28;20545;-84
2022/04/21 13:03:50;;;;;;;5.20;4.17;;;;;;;;;;5001966;28;20454;-84
2022/04/21 13:06:26;;;;;;;5.30;4.50;;;;;;;;;;5004705;28;20502;-84
2022/04/21 13:08:52;;;;;;;5.25;3.90;;;;;;;;;;5001731;28;20425;-83
2022/04/21 13:11:19;;;;;;;4.53;3.67;;;;;;;;;;5004531;28;20475;-84
2022/04/21 13:13:45;;;;;;;4.88;3.90;;;;;;;;;;4999958;28;20924;-83
2022/04/21 13:16:11;;;;;;;5.10;3.80;;;;;;;;;;5004520;28;20512;-84
2022/04/21 13:18:37;;;;;;;4.10;3.60;;;;;;;;;;5001704;28;20789;-83
2022/04/21 13:23:49;;;;;;;5.85;3.60;;;;;;;;;;5003414;28;20976;-84
2022/04/21 13:26:15;;;;;;;8.00;3.60;;;;;;;;;;5005684;28;20416;-84
2022/04/21 13:28:41;;;;;;;6.28;3.75;;;;;;;;;;5002637;28;20439;-84
2022/04/21 13:33:52;;;;;;;7.13;3.90;;;;;;;;;;5005105;28;20495;-83
2022/04/21 13:36:18;;;;;;;5.72;4.10;;;;;;;;;;5005037;28;20911;-84
2022/04/21 13:38:44;;;;;;;7.93;4.30;;;;;;;;;;5001586;28;20429;-83
2022/04/21 13:41:12;;;;;;;6.72;4.05;;;;;;;;;;5004149;28;20420;-83
2022/04/21 13:43:38;;;;;;;9.63;4.60;;;;;;;;;;5003440;28;20427;-84
2022/04/21 13:46:04;;;;;;;7.60;4.60;;;;;;;;;;5002522;28;20434;-84
2022/04/21 13:48:31;;;;;;;9.05;4.85;;;;;;;;;;5002833;28;20491;-82
2022/04/21 13:50:58;;;;;;;8.43;4.18;;;;;;;;;;5006686;28;20426;-84
2022/04/21 13:53:24;;;;;;;6.88;4.30;;;;;;;;;;5005372;28;20426;-84
2022/04/21 13:55:50;;;;;;;5.35;3.92;;;;;;;;;;5003929;28;20487;-84
2022/04/21 13:58:18;;;;;;;7.23;4.20;;;;;;;;;;5005198;28;20974;-85
2022/04/21 14:00:45;;;;;;;7.05;4.60;;;;;;;;;;5005640;28;20425;-83
2022/04/21 14:03:12;;;;;;;4.10;3.50;;;;;;;;;;5014788;28;20498;-84
2022/04/21 14:05:39;;;;;;;4.45;3.95;;;;;;;;;;5005540;28;21039;-84
2022/04/21 14:08:05;;;;;;;6.85;4.07;;;;;;;;;;5004524;28;20496;-82
2022/04/21 14:10:33;;;;;;;4.43;4.03;;;;;;;;;;5004588;28;20439;-84
2022/04/21 14:12:59;;;;;;;6.18;4.30;;;;;;;;;;5006732;28;20500;-83
2022/04/21 14:15:28;;;;;;;4.57;3.78;;;;;;;;;;5005629;28;21729;-84
2022/04/21 14:17:54;;;;;;;5.25;3.70;;;;;;;;;;5005341;28;20469;-84
2022/04/21 14:20:21;;;;;;;6.00;4.20;;;;;;;;;;5003074;28;20856;-84
2022/04/21 14:22:47;;;;;;;5.75;3.50;;;;;;;;;;5006581;28;20406;-83
2022/04/21 14:25:14;;;;;;;5.20;3.88;;;;;;;;;;5003750;28;20479;-84
2022/04/21 14:27:40;;;;;;;5.07;4.00;;;;;;;;;;5001965;28;20438;-84
2022/04/21 14:30:07;;;;;;;6.28;3.88;;;;;;;;;;5003918;28;20926;-84
2022/04/21 14:32:35;;;;;;;5.65;3.35;;;;;;;;;;5005697;28;20448;-85
2022/04/21 14:35:01;;;;;;;4.93;3.80;;;;;;;;;;5003371;28;20426;-83
2022/04/21 14:45:40;;;;;;;4.47;2.80;;;;;;;;;;5003019;28;20486;-84
2022/04/21 14:48:08;;;;;;;5.75;3.30;;;;;;;;;;5002767;28;20951;-83
2022/04/21 14:50:34;;;;;;;6.30;3.42;;;;;;;;;;5003434;28;20788;-83
2022/04/21 14:53:00;;;;;;;4.55;3.40;;;;;;;;;;5003706;28;20863;-83
2022/04/21 14:55:27;;;;;;;5.30;2.80;;;;;;;;;;5004082;28;20805;-84
2022/04/21 14:57:53;;;;;;;5.07;3.15;;;;;;;;;;5002923;28;20418;-84
2022/04/21 15:00:20;;;;;;;7.05;3.47;;;;;;;;;;5001866;28;20428;-83
2022/04/21 15:02:46;;;;;;;5.47;3.30;;;;;;;;;;5004313;28;20441;-83
2022/04/21 15:05:13;;;;;;;7.80;3.50;;;;;;;;;;5002688;28;20425;-84
2022/04/21 15:07:40;;;;;;;3.08;2.78;;;;;;;;;;5003723;28;20427;-84
2022/04/21 15:10:06;;;;;;;4.60;3.20;;;;;;;;;;5002601;28;20418;-84
2022/04/21 15:12:34;;;;;;;6.72;3.10;;;;;;;;;;5004104;28;20418;-84
2022/04/21 15:15:01;;;;;;;7.25;2.90;;;;;;;;;;5002351;28;20560;-83
2022/04/21 15:17:27;;;;;;;3.67;2.85;;;;;;;;;;5004318;28;20445;-84
2022/04/21 15:19:53;;;;;;;6.60;3.13;;;;;;;;;;5002049;28;20455;-84
2022/04/21 15:22:22;;;;;;;6.80;3.30;;;;;;;;;;5004431;28;20421;-84
2022/04/21 15:24:52;;;;;;;6.60;2.90;;;;;;;;;;4999679;28;20422;-84
2022/04/21 15:27:19;;;;;;;4.60;2.90;;;;;;;;;;5003881;28;20888;-84
2022/04/21 15:29:46;;;;;;;6.40;3.22;;;;;;;;;;4996342;28;20623;-82
2022/04/21 15:32:12;;;;;;;7.32;3.53;;;;;;;;;;4998119;28;20448;-83
2022/04/21 15:34:39;;;;;;;8.40;3.00;;;;;;;;;;5000522;28;20453;-85
2022/04/21 15:37:07;;;;;;;6.38;3.83;;;;;;;;;;4999942;28;20479;-85
2022/04/21 15:39:35;;;;;;;6.35;3.30;;;;;;;;;;5002926;28;20425;-85
2022/04/21 15:42:01;;;;;;;5.47;3.22;;;;;;;;;;5003799;28;20440;-85
2022/04/21 15:44:27;;;;;;;5.60;3.60;;;;;;;;;;5000195;28;20487;-85
2022/04/21 15:46:54;;;;;;;6.23;3.70;;;;;;;;;;4998986;28;20441;-83
2022/04/21 15:49:20;;;;;;;4.25;3.20;;;;;;;;;;5000548;28;20929;-83